sensor_id;sensor_type;location;lat;lon;timestamp;P1;durP1;ratioP1;P2;durP2;ratioP2
12725;SDS011;6427;49.754;6.106;2023-03-17T00:01:16;45.87;;;20.90;;
12725;SDS011;6427;49.754;6.106;2023-03-17T00:03:44;42.75;;;21.02;;
12725;SDS011;6427;49.754;6.106;2023-03-17T00:06:15;30.10;;;14.00;;
12725;SDS011;6427;49.754;6.106;2023-03-17T00:08:44;19.57;;;9.93;;
12725;SDS011;6427;49.754;6.106;2023-03-17T00:11:13;23.03;;;11.90;;
12725;SDS011;6427;49.754;6.106;2023-03-17T00:13:40;11.13;;;6.20;;
12725;SDS011;6427;49.754;6.106;2023-03-17T00:16:19;8.50;;;4.97;;
12725;SDS011;6427;49.754;6.106;2023-03-17T00:18:45;6.63;;;4.00;;
12725;SDS011;6427;49.754;6.106;2023-03-17T00:21:13;6.83;;;3.63;;
12725;SDS011;6427;49.754;6.106;2023-03-17T00:23:47;5.17;;;3.30;;
12725;SDS011;6427;49.754;6.106;2023-03-17T00:26:08;8.33;;;3.70;;
12725;SDS011;6427;49.754;6.106;2023-03-17T00:28:36;5.13;;;3.43;;
12725;SDS011;6427;49.754;6.106;2023-03-17T00:31:08;4.80;;;3.53;;
12725;SDS011;6427;49.754;6.106;2023-03-17T00:33:31;8.33;;;3.90;;
12725;SDS011;6427;49.754;6.106;2023-03-17T00:35:58;6.90;;;4.00;;
12725;SDS011;6427;49.754;6.106;2023-03-17T00:38:26;6.87;;;4.00;;
12725;SDS011;6427;49.754;6.106;2023-03-17T00:40:53;7.40;;;4.30;;
12725;SDS011;6427;49.754;6.106;2023-03-17T00:43:22;7.83;;;4.50;;
12725;SDS011;6427;49.754;6.106;2023-03-17T00:45:49;9.00;;;4.30;;
12725;SDS011;6427;49.754;6.106;2023-03-17T00:48:18;8.50;;;5.23;;
12725;SDS011;6427;49.754;6.106;2023-03-17T00:50:45;9.07;;;5.40;;
12725;SDS011;6427;49.754;6.106;2023-03-17T00:53:13;9.27;;;5.30;;
12725;SDS011;6427;49.754;6.106;2023-03-17T00:55:40;9.90;;;4.40;;
12725;SDS011;6427;49.754;6.106;2023-03-17T00:58:11;13.47;;;4.47;;
12725;SDS011;6427;49.754;6.106;2023-03-17T01:00:54;7.20;;;4.50;;
12725;SDS011;6427;49.754;6.106;2023-03-17T01:03:22;6.20;;;4.20;;
12725;SDS011;6427;49.754;6.106;2023-03-17T01:05:50;5.27;;;3.70;;
12725;SDS011;6427;49.754;6.106;2023-03-17T01:08:17;4.60;;;3.63;;
12725;SDS011;6427;49.754;6.106;2023-03-17T01:10:45;8.20;;;4.00;;
12725;SDS011;6427;49.754;6.106;2023-03-17T01:13:13;6.13;;;3.87;;
12725;SDS011;6427;49.754;6.106;2023-03-17T01:15:41;7.60;;;3.87;;
12725;SDS011;6427;49.754;6.106;2023-03-17T01:18:08;6.20;;;3.87;;
12725;SDS011;6427;49.754;6.106;2023-03-17T01:20:35;5.10;;;3.40;;
12725;SDS011;6427;49.754;6.106;2023-03-17T01:23:03;7.83;;;4.40;;
12725;SDS011;6427;49.754;6.106;2023-03-17T01:25:30;5.53;;;4.00;;
12725;SDS011;6427;49.754;6.106;2023-03-17T01:27:58;15.50;;;7.47;;
12725;SDS011;6427;49.754;6.106;2023-03-17T01:30:27;12.07;;;8.50;;
12725;SDS011;6427;49.754;6.106;2023-03-17T01:32:54;12.97;;;7.50;;
12725;SDS011;6427;49.754;6.106;2023-03-17T01:35:21;10.97;;;6.47;;
12725;SDS011;6427;49.754;6.106;2023-03-17T01:37:49;8.93;;;5.53;;
12725;SDS011;6427;49.754;6.106;2023-03-17T01:40:18;6.73;;;4.67;;
12725;SDS011;6427;49.754;6.106;2023-03-17T01:42:44;8.90;;;4.73;;
12725;SDS011;6427;49.754;6.106;2023-03-17T01:48:16;9.80;;;5.90;;
12725;SDS011;6427;49.754;6.106;2023-03-17T01:50:43;9.85;;;7.87;;
12725;SDS011;6427;49.754;6.106;2023-03-17T01:53:11;9.67;;;6.57;;
12725;SDS011;6427;49.754;6.106;2023-03-17T01:55:39;8.27;;;4.50;;
12725;SDS011;6427;49.754;6.106;2023-03-17T01:58:06;6.60;;;3.80;;
12725;SDS011;6427;49.754;6.106;2023-03-17T02:00:33;6.37;;;3.80;;
12725;SDS011;6427;49.754;6.106;2023-03-17T02:03:01;6.40;;;3.93;;
12725;SDS011;6427;49.754;6.106;2023-03-17T02:05:29;6.73;;;4.00;;
12725;SDS011;6427;49.754;6.106;2023-03-17T02:07:57;6.83;;;4.00;;
12725;SDS011;6427;49.754;6.106;2023-03-17T02:10:25;7.33;;;3.80;;
12725;SDS011;6427;49.754;6.106;2023-03-17T02:12:54;6.93;;;4.20;;
12725;SDS011;6427;49.754;6.106;2023-03-17T02:15:23;5.90;;;3.93;;
12725;SDS011;6427;49.754;6.106;2023-03-17T02:17:50;9.43;;;4.40;;
12725;SDS011;6427;49.754;6.106;2023-03-17T02:22:47;5.13;;;3.97;;
12725;SDS011;6427;49.754;6.106;2023-03-17T02:25:14;8.10;;;4.20;;
12725;SDS011;6427;49.754;6.106;2023-03-17T02:27:53;6.63;;;4.00;;
12725;SDS011;6427;49.754;6.106;2023-03-17T02:30:10;7.03;;;4.10;;
12725;SDS011;6427;49.754;6.106;2023-03-17T02:32:37;5.80;;;4.17;;
12725;SDS011;6427;49.754;6.106;2023-03-17T02:35:05;4.83;;;3.90;;
12725;SDS011;6427;49.754;6.106;2023-03-17T02:37:32;7.40;;;4.80;;
12725;SDS011;6427;49.754;6.106;2023-03-17T02:40:01;7.87;;;4.47;;
12725;SDS011;6427;49.754;6.106;2023-03-17T02:42:28;5.67;;;4.00;;
12725;SDS011;6427;49.754;6.106;2023-03-17T02:44:56;5.93;;;4.10;;
12725;SDS011;6427;49.754;6.106;2023-03-17T02:47:23;6.57;;;4.10;;
12725;SDS011;6427;49.754;6.106;2023-03-17T02:49:51;8.57;;;4.90;;
12725;SDS011;6427;49.754;6.106;2023-03-17T02:52:18;8.35;;;5.00;;
12725;SDS011;6427;49.754;6.106;2023-03-17T02:54:46;7.63;;;4.40;;
12725;SDS011;6427;49.754;6.106;2023-03-17T02:57:13;6.67;;;4.00;;
12725;SDS011;6427;49.754;6.106;2023-03-17T02:59:42;6.03;;;3.67;;
12725;SDS011;6427;49.754;6.106;2023-03-17T03:02:09;5.50;;;3.60;;
12725;SDS011;6427;49.754;6.106;2023-03-17T03:04:37;5.83;;;3.90;;
12725;SDS011;6427;49.754;6.106;2023-03-17T03:07:04;5.80;;;4.23;;
12725;SDS011;6427;49.754;6.106;2023-03-17T03:09:33;5.67;;;4.07;;
12725;SDS011;6427;49.754;6.106;2023-03-17T03:12:00;6.40;;;3.80;;
12725;SDS011;6427;49.754;6.106;2023-03-17T03:14:29;5.27;;;3.50;;
12725;SDS011;6427;49.754;6.106;2023-03-17T03:16:57;6.53;;;4.07;;
12725;SDS011;6427;49.754;6.106;2023-03-17T03:19:25;6.20;;;4.40;;
12725;SDS011;6427;49.754;6.106;2023-03-17T03:21:53;10.57;;;4.57;;
12725;SDS011;6427;49.754;6.106;2023-03-17T03:24:21;9.33;;;4.30;;
12725;SDS011;6427;49.754;6.106;2023-03-17T03:26:49;6.80;;;4.33;;
12725;SDS011;6427;49.754;6.106;2023-03-17T03:29:16;9.20;;;5.30;;
12725;SDS011;6427;49.754;6.106;2023-03-17T03:31:44;9.40;;;5.03;;
12725;SDS011;6427;49.754;6.106;2023-03-17T03:34:11;8.90;;;5.17;;
12725;SDS011;6427;49.754;6.106;2023-03-17T03:36:40;5.23;;;4.37;;
12725;SDS011;6427;49.754;6.106;2023-03-17T03:39:07;6.67;;;3.93;;
12725;SDS011;6427;49.754;6.106;2023-03-17T03:41:35;7.13;;;3.87;;
12725;SDS011;6427;49.754;6.106;2023-03-17T03:44:03;6.87;;;4.00;;
12725;SDS011;6427;49.754;6.106;2023-03-17T03:46:31;5.80;;;4.10;;
12725;SDS011;6427;49.754;6.106;2023-03-17T03:48:58;5.33;;;4.00;;
12725;SDS011;6427;49.754;6.106;2023-03-17T03:51:27;7.40;;;4.27;;
12725;SDS011;6427;49.754;6.106;2023-03-17T03:53:54;5.03;;;4.10;;
12725;SDS011;6427;49.754;6.106;2023-03-17T03:56:24;6.10;;;4.40;;
12725;SDS011;6427;49.754;6.106;2023-03-17T03:58:52;8.93;;;4.40;;
12725;SDS011;6427;49.754;6.106;2023-03-17T04:01:20;5.60;;;4.37;;
12725;SDS011;6427;49.754;6.106;2023-03-17T04:03:47;8.00;;;4.13;;
12725;SDS011;6427;49.754;6.106;2023-03-17T04:06:15;6.10;;;4.40;;
12725;SDS011;6427;49.754;6.106;2023-03-17T04:08:43;5.70;;;3.97;;
12725;SDS011;6427;49.754;6.106;2023-03-17T04:11:11;9.30;;;4.17;;
12725;SDS011;6427;49.754;6.106;2023-03-17T04:13:39;8.27;;;4.33;;
12725;SDS011;6427;49.754;6.106;2023-03-17T04:16:07;6.32;;;5.28;;
12725;SDS011;6427;49.754;6.106;2023-03-17T04:18:34;5.93;;;4.47;;
12725;SDS011;6427;49.754;6.106;2023-03-17T04:21:02;7.33;;;4.97;;
12725;SDS011;6427;49.754;6.106;2023-03-17T04:23:29;6.37;;;4.90;;
12725;SDS011;6427;49.754;6.106;2023-03-17T04:25:58;8.83;;;4.67;;
12725;SDS011;6427;49.754;6.106;2023-03-17T04:28:25;6.17;;;4.07;;
12725;SDS011;6427;49.754;6.106;2023-03-17T04:30:54;7.43;;;4.30;;
12725;SDS011;6427;49.754;6.106;2023-03-17T04:33:22;7.93;;;4.73;;
12725;SDS011;6427;49.754;6.106;2023-03-17T04:35:49;4.30;;;3.40;;
12725;SDS011;6427;49.754;6.106;2023-03-17T04:38:17;9.30;;;4.40;;
12725;SDS011;6427;49.754;6.106;2023-03-17T04:40:45;8.53;;;4.80;;
12725;SDS011;6427;49.754;6.106;2023-03-17T04:43:13;7.63;;;4.23;;
12725;SDS011;6427;49.754;6.106;2023-03-17T04:45:41;6.07;;;4.57;;
12725;SDS011;6427;49.754;6.106;2023-03-17T04:48:09;5.67;;;4.33;;
12725;SDS011;6427;49.754;6.106;2023-03-17T04:50:36;6.50;;;5.03;;
12725;SDS011;6427;49.754;6.106;2023-03-17T04:53:05;7.57;;;4.43;;
12725;SDS011;6427;49.754;6.106;2023-03-17T04:55:32;6.03;;;4.53;;
12725;SDS011;6427;49.754;6.106;2023-03-17T04:58:00;8.43;;;4.00;;
12725;SDS011;6427;49.754;6.106;2023-03-17T05:00:28;5.90;;;4.30;;
12725;SDS011;6427;49.754;6.106;2023-03-17T05:02:56;6.20;;;3.97;;
12725;SDS011;6427;49.754;6.106;2023-03-17T05:05:23;5.77;;;4.17;;
12725;SDS011;6427;49.754;6.106;2023-03-17T05:07:51;5.80;;;4.17;;
12725;SDS011;6427;49.754;6.106;2023-03-17T05:10:18;5.93;;;4.37;;
12725;SDS011;6427;49.754;6.106;2023-03-17T05:12:46;7.67;;;3.77;;
12725;SDS011;6427;49.754;6.106;2023-03-17T05:15:14;5.53;;;4.20;;
12725;SDS011;6427;49.754;6.106;2023-03-17T05:17:41;5.20;;;3.87;;
12725;SDS011;6427;49.754;6.106;2023-03-17T05:20:09;7.27;;;4.03;;
12725;SDS011;6427;49.754;6.106;2023-03-17T05:22:36;5.43;;;4.30;;
12725;SDS011;6427;49.754;6.106;2023-03-17T05:25:04;6.30;;;4.03;;
12725;SDS011;6427;49.754;6.106;2023-03-17T05:27:31;7.00;;;4.85;;
12725;SDS011;6427;49.754;6.106;2023-03-17T05:29:59;7.68;;;5.43;;
12725;SDS011;6427;49.754;6.106;2023-03-17T05:32:27;7.20;;;4.20;;
12725;SDS011;6427;49.754;6.106;2023-03-17T05:34:54;9.07;;;4.73;;
12725;SDS011;6427;49.754;6.106;2023-03-17T05:37:22;6.97;;;4.63;;
12725;SDS011;6427;49.754;6.106;2023-03-17T05:39:49;6.13;;;4.00;;
12725;SDS011;6427;49.754;6.106;2023-03-17T05:42:17;7.83;;;4.77;;
12725;SDS011;6427;49.754;6.106;2023-03-17T05:44:45;7.20;;;3.90;;
12725;SDS011;6427;49.754;6.106;2023-03-17T05:47:13;7.20;;;4.87;;
12725;SDS011;6427;49.754;6.106;2023-03-17T05:49:40;6.73;;;4.03;;
12725;SDS011;6427;49.754;6.106;2023-03-17T05:52:08;6.50;;;4.10;;
12725;SDS011;6427;49.754;6.106;2023-03-17T05:54:36;9.37;;;4.40;;
12725;SDS011;6427;49.754;6.106;2023-03-17T05:57:03;7.20;;;3.97;;
12725;SDS011;6427;49.754;6.106;2023-03-17T05:59:31;6.33;;;4.00;;
12725;SDS011;6427;49.754;6.106;2023-03-17T06:01:58;8.77;;;4.90;;
12725;SDS011;6427;49.754;6.106;2023-03-17T06:04:26;9.20;;;4.27;;
12725;SDS011;6427;49.754;6.106;2023-03-17T06:06:53;6.47;;;3.87;;
12725;SDS011;6427;49.754;6.106;2023-03-17T06:09:21;7.17;;;4.33;;
12725;SDS011;6427;49.754;6.106;2023-03-17T06:11:49;6.17;;;3.93;;
12725;SDS011;6427;49.754;6.106;2023-03-17T06:14:17;7.10;;;4.20;;
12725;SDS011;6427;49.754;6.106;2023-03-17T06:16:45;5.53;;;3.67;;
12725;SDS011;6427;49.754;6.106;2023-03-17T06:19:13;6.77;;;4.00;;
12725;SDS011;6427;49.754;6.106;2023-03-17T06:21:40;9.68;;;4.85;;
12725;SDS011;6427;49.754;6.106;2023-03-17T06:24:08;5.77;;;4.10;;
12725;SDS011;6427;49.754;6.106;2023-03-17T06:26:36;14.10;;;4.40;;
12725;SDS011;6427;49.754;6.106;2023-03-17T06:29:04;8.80;;;4.00;;
12725;SDS011;6427;49.754;6.106;2023-03-17T06:31:32;9.80;;;3.90;;
12725;SDS011;6427;49.754;6.106;2023-03-17T06:34:00;10.97;;;7.47;;
12725;SDS011;6427;49.754;6.106;2023-03-17T06:36:28;8.83;;;5.37;;
12725;SDS011;6427;49.754;6.106;2023-03-17T06:38:55;7.40;;;5.07;;
12725;SDS011;6427;49.754;6.106;2023-03-17T06:41:23;7.33;;;5.03;;
12725;SDS011;6427;49.754;6.106;2023-03-17T06:43:50;10.63;;;7.10;;
12725;SDS011;6427;49.754;6.106;2023-03-17T06:46:18;14.80;;;7.27;;
12725;SDS011;6427;49.754;6.106;2023-03-17T06:48:46;11.83;;;5.90;;
12725;SDS011;6427;49.754;6.106;2023-03-17T06:51:13;8.90;;;5.43;;
12725;SDS011;6427;49.754;6.106;2023-03-17T06:53:41;8.10;;;5.13;;
12725;SDS011;6427;49.754;6.106;2023-03-17T06:56:09;8.50;;;4.60;;
12725;SDS011;6427;49.754;6.106;2023-03-17T06:58:36;6.53;;;4.60;;
12725;SDS011;6427;49.754;6.106;2023-03-17T07:01:04;9.27;;;4.90;;
12725;SDS011;6427;49.754;6.106;2023-03-17T07:03:32;10.50;;;5.30;;
12725;SDS011;6427;49.754;6.106;2023-03-17T07:06:00;8.07;;;5.10;;
12725;SDS011;6427;49.754;6.106;2023-03-17T07:08:27;8.57;;;4.40;;
12725;SDS011;6427;49.754;6.106;2023-03-17T07:10:55;8.43;;;5.17;;
12725;SDS011;6427;49.754;6.106;2023-03-17T07:13:23;7.13;;;4.70;;
12725;SDS011;6427;49.754;6.106;2023-03-17T07:15:52;6.30;;;4.77;;
12725;SDS011;6427;49.754;6.106;2023-03-17T07:18:20;8.70;;;5.00;;
12725;SDS011;6427;49.754;6.106;2023-03-17T07:20:48;9.63;;;4.67;;
12725;SDS011;6427;49.754;6.106;2023-03-17T07:23:18;7.03;;;4.80;;
12725;SDS011;6427;49.754;6.106;2023-03-17T07:25:43;7.23;;;3.93;;
12725;SDS011;6427;49.754;6.106;2023-03-17T07:28:12;8.83;;;3.97;;
12725;SDS011;6427;49.754;6.106;2023-03-17T07:30:39;5.87;;;3.77;;
12725;SDS011;6427;49.754;6.106;2023-03-17T07:33:07;8.57;;;4.10;;
12725;SDS011;6427;49.754;6.106;2023-03-17T07:35:35;7.23;;;4.30;;
12725;SDS011;6427;49.754;6.106;2023-03-17T07:38:03;9.27;;;4.23;;
12725;SDS011;6427;49.754;6.106;2023-03-17T07:40:31;6.20;;;4.13;;
12725;SDS011;6427;49.754;6.106;2023-03-17T07:42:58;5.20;;;3.77;;
12725;SDS011;6427;49.754;6.106;2023-03-17T07:45:26;7.10;;;3.80;;
12725;SDS011;6427;49.754;6.106;2023-03-17T07:47:53;8.35;;;4.43;;
12725;SDS011;6427;49.754;6.106;2023-03-17T07:50:21;6.07;;;4.27;;
12725;SDS011;6427;49.754;6.106;2023-03-17T07:52:49;6.87;;;4.00;;
12725;SDS011;6427;49.754;6.106;2023-03-17T07:55:16;8.73;;;4.40;;
12725;SDS011;6427;49.754;6.106;2023-03-17T07:57:44;7.43;;;4.03;;
12725;SDS011;6427;49.754;6.106;2023-03-17T08:00:12;7.13;;;3.77;;
12725;SDS011;6427;49.754;6.106;2023-03-17T08:02:40;6.20;;;4.07;;
12725;SDS011;6427;49.754;6.106;2023-03-17T08:05:07;6.57;;;3.83;;
12725;SDS011;6427;49.754;6.106;2023-03-17T08:07:35;14.47;;;4.57;;
12725;SDS011;6427;49.754;6.106;2023-03-17T08:10:07;7.63;;;4.10;;
12725;SDS011;6427;49.754;6.106;2023-03-17T08:12:34;9.17;;;3.90;;
12725;SDS011;6427;49.754;6.106;2023-03-17T08:15:01;6.33;;;3.80;;
12725;SDS011;6427;49.754;6.106;2023-03-17T08:17:29;6.00;;;3.97;;
12725;SDS011;6427;49.754;6.106;2023-03-17T08:19:56;6.63;;;4.07;;
12725;SDS011;6427;49.754;6.106;2023-03-17T08:22:24;7.07;;;4.07;;
12725;SDS011;6427;49.754;6.106;2023-03-17T08:24:52;8.50;;;4.27;;
12725;SDS011;6427;49.754;6.106;2023-03-17T08:27:20;6.67;;;3.90;;
12725;SDS011;6427;49.754;6.106;2023-03-17T08:29:47;4.80;;;3.67;;
12725;SDS011;6427;49.754;6.106;2023-03-17T08:32:15;8.13;;;3.63;;
12725;SDS011;6427;49.754;6.106;2023-03-17T08:34:42;10.17;;;4.10;;
12725;SDS011;6427;49.754;6.106;2023-03-17T08:37:10;6.90;;;3.97;;
12725;SDS011;6427;49.754;6.106;2023-03-17T08:39:38;6.93;;;4.07;;
12725;SDS011;6427;49.754;6.106;2023-03-17T08:42:06;5.70;;;3.97;;
12725;SDS011;6427;49.754;6.106;2023-03-17T08:44:33;7.80;;;4.60;;
12725;SDS011;6427;49.754;6.106;2023-03-17T08:47:02;8.17;;;4.60;;
12725;SDS011;6427;49.754;6.106;2023-03-17T08:49:29;11.80;;;4.37;;
12725;SDS011;6427;49.754;6.106;2023-03-17T08:51:57;7.93;;;4.30;;
12725;SDS011;6427;49.754;6.106;2023-03-17T08:54:24;6.13;;;3.70;;
12725;SDS011;6427;49.754;6.106;2023-03-17T08:56:52;6.37;;;4.07;;
12725;SDS011;6427;49.754;6.106;2023-03-17T08:59:19;8.97;;;4.03;;
12725;SDS011;6427;49.754;6.106;2023-03-17T09:01:47;9.98;;;4.68;;
12725;SDS011;6427;49.754;6.106;2023-03-17T09:04:14;11.30;;;4.28;;
12725;SDS011;6427;49.754;6.106;2023-03-17T09:06:42;7.67;;;3.83;;
12725;SDS011;6427;49.754;6.106;2023-03-17T09:09:09;6.23;;;3.77;;
12725;SDS011;6427;49.754;6.106;2023-03-17T09:11:37;11.93;;;3.70;;
12725;SDS011;6427;49.754;6.106;2023-03-17T09:14:05;6.62;;;3.58;;
12725;SDS011;6427;49.754;6.106;2023-03-17T09:16:33;6.00;;;3.20;;
12725;SDS011;6427;49.754;6.106;2023-03-17T09:19:01;5.87;;;3.20;;
12725;SDS011;6427;49.754;6.106;2023-03-17T09:21:29;6.67;;;3.60;;
12725;SDS011;6427;49.754;6.106;2023-03-17T09:23:56;6.07;;;3.47;;
12725;SDS011;6427;49.754;6.106;2023-03-17T09:26:24;6.00;;;3.50;;
12725;SDS011;6427;49.754;6.106;2023-03-17T09:28:52;9.43;;;4.15;;
12725;SDS011;6427;49.754;6.106;2023-03-17T09:31:19;7.43;;;4.07;;
12725;SDS011;6427;49.754;6.106;2023-03-17T09:33:47;10.37;;;3.40;;
12725;SDS011;6427;49.754;6.106;2023-03-17T09:36:15;8.20;;;3.30;;
12725;SDS011;6427;49.754;6.106;2023-03-17T09:38:42;7.72;;;3.17;;
12725;SDS011;6427;49.754;6.106;2023-03-17T09:46:31;5.90;;;2.17;;
12725;SDS011;6427;49.754;6.106;2023-03-17T09:49:19;9.83;;;2.83;;
12725;SDS011;6427;49.754;6.106;2023-03-17T09:52:01;6.30;;;2.70;;
12725;SDS011;6427;49.754;6.106;2023-03-17T09:54:32;8.77;;;2.03;;
12725;SDS011;6427;49.754;6.106;2023-03-17T09:57:03;2.57;;;1.53;;
12725;SDS011;6427;49.754;6.106;2023-03-17T09:59:31;4.97;;;1.63;;
12725;SDS011;6427;49.754;6.106;2023-03-17T10:02:00;4.27;;;1.57;;
12725;SDS011;6427;49.754;6.106;2023-03-17T10:04:28;3.77;;;1.40;;
12725;SDS011;6427;49.754;6.106;2023-03-17T10:06:57;3.13;;;1.50;;
12725;SDS011;6427;49.754;6.106;2023-03-17T10:12:08;5.10;;;1.67;;
12725;SDS011;6427;49.754;6.106;2023-03-17T10:14:40;4.70;;;1.97;;
12725;SDS011;6427;49.754;6.106;2023-03-17T10:19:39;5.03;;;1.70;;
12725;SDS011;6427;49.754;6.106;2023-03-17T10:24:49;5.07;;;1.70;;
12725;SDS011;6427;49.754;6.106;2023-03-17T10:27:17;4.80;;;1.63;;
12725;SDS011;6427;49.754;6.106;2023-03-17T10:29:45;2.20;;;1.40;;
12725;SDS011;6427;49.754;6.106;2023-03-17T10:32:12;5.70;;;1.53;;
12725;SDS011;6427;49.754;6.106;2023-03-17T10:34:40;6.50;;;1.53;;
12725;SDS011;6427;49.754;6.106;2023-03-17T10:37:12;3.60;;;1.63;;
12725;SDS011;6427;49.754;6.106;2023-03-17T10:39:45;4.87;;;1.43;;
12725;SDS011;6427;49.754;6.106;2023-03-17T10:42:21;5.37;;;1.73;;
12725;SDS011;6427;49.754;6.106;2023-03-17T10:47:19;3.43;;;1.50;;
12725;SDS011;6427;49.754;6.106;2023-03-17T10:49:49;2.27;;;1.43;;
12725;SDS011;6427;49.754;6.106;2023-03-17T10:52:21;4.03;;;1.63;;
12725;SDS011;6427;49.754;6.106;2023-03-17T10:54:53;5.77;;;1.60;;
12725;SDS011;6427;49.754;6.106;2023-03-17T10:57:22;6.62;;;1.92;;
12725;SDS011;6427;49.754;6.106;2023-03-17T10:59:50;2.73;;;1.43;;
12725;SDS011;6427;49.754;6.106;2023-03-17T11:02:19;3.60;;;1.50;;
12725;SDS011;6427;49.754;6.106;2023-03-17T11:04:45;2.87;;;1.43;;
12725;SDS011;6427;49.754;6.106;2023-03-17T11:07:36;4.50;;;1.60;;
12725;SDS011;6427;49.754;6.106;2023-03-17T11:09:49;3.13;;;1.60;;
12725;SDS011;6427;49.754;6.106;2023-03-17T11:12:33;5.50;;;1.60;;
12725;SDS011;6427;49.754;6.106;2023-03-17T11:14:59;3.23;;;1.37;;
12725;SDS011;6427;49.754;6.106;2023-03-17T11:20:24;5.93;;;1.60;;
12725;SDS011;6427;49.754;6.106;2023-03-17T11:23:00;3.70;;;1.50;;
12725;SDS011;6427;49.754;6.106;2023-03-17T11:25:26;6.00;;;1.37;;
12725;SDS011;6427;49.754;6.106;2023-03-17T11:30:40;3.97;;;1.47;;
12725;SDS011;6427;49.754;6.106;2023-03-17T11:39:01;4.47;;;1.57;;
12725;SDS011;6427;49.754;6.106;2023-03-17T11:41:34;4.53;;;1.65;;
12725;SDS011;6427;49.754;6.106;2023-03-17T11:47:20;4.28;;;1.80;;
12725;SDS011;6427;49.754;6.106;2023-03-17T11:49:45;7.97;;;1.83;;
12725;SDS011;6427;49.754;6.106;2023-03-17T11:55:01;4.10;;;1.80;;
12725;SDS011;6427;49.754;6.106;2023-03-17T11:57:29;4.53;;;1.70;;
12725;SDS011;6427;49.754;6.106;2023-03-17T12:00:02;4.93;;;1.80;;
12725;SDS011;6427;49.754;6.106;2023-03-17T12:05:05;6.07;;;2.10;;
12725;SDS011;6427;49.754;6.106;2023-03-17T12:07:42;6.07;;;1.73;;
12725;SDS011;6427;49.754;6.106;2023-03-17T12:12:53;6.90;;;1.60;;
12725;SDS011;6427;49.754;6.106;2023-03-17T12:15:27;3.23;;;1.30;;
12725;SDS011;6427;49.754;6.106;2023-03-17T12:17:59;3.30;;;1.73;;
12725;SDS011;6427;49.754;6.106;2023-03-17T12:20:33;2.17;;;1.20;;
12725;SDS011;6427;49.754;6.106;2023-03-17T12:23:13;4.80;;;1.63;;
12725;SDS011;6427;49.754;6.106;2023-03-17T12:25:48;5.10;;;1.50;;
12725;SDS011;6427;49.754;6.106;2023-03-17T12:28:18;9.00;;;1.70;;
12725;SDS011;6427;49.754;6.106;2023-03-17T12:30:55;7.37;;;1.60;;
12725;SDS011;6427;49.754;6.106;2023-03-17T12:35:58;6.50;;;1.77;;
12725;SDS011;6427;49.754;6.106;2023-03-17T12:44:08;6.20;;;1.93;;
12725;SDS011;6427;49.754;6.106;2023-03-17T12:46:37;2.00;;;1.27;;
12725;SDS011;6427;49.754;6.106;2023-03-17T12:52:05;4.23;;;1.70;;
12725;SDS011;6427;49.754;6.106;2023-03-17T12:54:48;6.53;;;1.67;;
12725;SDS011;6427;49.754;6.106;2023-03-17T12:57:25;5.13;;;2.00;;
12725;SDS011;6427;49.754;6.106;2023-03-17T12:59:49;5.70;;;1.50;;
12725;SDS011;6427;49.754;6.106;2023-03-17T13:04:54;7.77;;;1.43;;
12725;SDS011;6427;49.754;6.106;2023-03-17T13:07:21;5.18;;;2.00;;
12725;SDS011;6427;49.754;6.106;2023-03-17T13:23:38;3.80;;;1.80;;
12725;SDS011;6427;49.754;6.106;2023-03-17T13:26:03;4.77;;;1.70;;
12725;SDS011;6427;49.754;6.106;2023-03-17T13:31:08;6.23;;;2.10;;
12725;SDS011;6427;49.754;6.106;2023-03-17T13:33:56;5.43;;;1.50;;
12725;SDS011;6427;49.754;6.106;2023-03-17T13:38:58;7.10;;;1.83;;
12725;SDS011;6427;49.754;6.106;2023-03-17T13:51:49;5.45;;;2.00;;
12725;SDS011;6427;49.754;6.106;2023-03-17T13:54:20;6.87;;;1.87;;
12725;SDS011;6427;49.754;6.106;2023-03-17T13:56:47;6.40;;;2.17;;
12725;SDS011;6427;49.754;6.106;2023-03-17T13:59:18;4.37;;;1.80;;
12725;SDS011;6427;49.754;6.106;2023-03-17T14:02:02;3.37;;;1.47;;
12725;SDS011;6427;49.754;6.106;2023-03-17T14:04:33;7.10;;;2.23;;
12725;SDS011;6427;49.754;6.106;2023-03-17T14:06:57;7.40;;;1.83;;
12725;SDS011;6427;49.754;6.106;2023-03-17T14:09:29;7.83;;;2.70;;
12725;SDS011;6427;49.754;6.106;2023-03-17T14:11:53;4.53;;;1.77;;
12725;SDS011;6427;49.754;6.106;2023-03-17T14:14:33;6.67;;;1.87;;
12725;SDS011;6427;49.754;6.106;2023-03-17T14:17:10;5.70;;;1.87;;
12725;SDS011;6427;49.754;6.106;2023-03-17T14:19:37;5.35;;;1.90;;
12725;SDS011;6427;49.754;6.106;2023-03-17T14:22:18;3.97;;;1.27;;
12725;SDS011;6427;49.754;6.106;2023-03-17T14:24:44;5.37;;;1.77;;
12725;SDS011;6427;49.754;6.106;2023-03-17T14:27:12;6.17;;;1.97;;
12725;SDS011;6427;49.754;6.106;2023-03-17T14:29:40;5.17;;;1.57;;
12725;SDS011;6427;49.754;6.106;2023-03-17T14:32:14;3.63;;;1.17;;
12725;SDS011;6427;49.754;6.106;2023-03-17T14:34:42;7.45;;;1.55;;
12725;SDS011;6427;49.754;6.106;2023-03-17T14:37:08;3.73;;;1.00;;
12725;SDS011;6427;49.754;6.106;2023-03-17T14:39:42;3.70;;;1.37;;
12725;SDS011;6427;49.754;6.106;2023-03-17T14:42:04;4.30;;;0.90;;
12725;SDS011;6427;49.754;6.106;2023-03-17T14:44:39;3.07;;;1.00;;
12725;SDS011;6427;49.754;6.106;2023-03-17T14:47:04;4.60;;;1.35;;
12725;SDS011;6427;49.754;6.106;2023-03-17T14:49:30;3.07;;;1.07;;
12725;SDS011;6427;49.754;6.106;2023-03-17T14:51:59;4.83;;;1.10;;
12725;SDS011;6427;49.754;6.106;2023-03-17T14:54:30;9.50;;;1.43;;
12725;SDS011;6427;49.754;6.106;2023-03-17T14:56:55;4.90;;;1.08;;
12725;SDS011;6427;49.754;6.106;2023-03-17T14:59:27;4.53;;;1.23;;
12725;SDS011;6427;49.754;6.106;2023-03-17T15:01:56;5.63;;;1.13;;
12725;SDS011;6427;49.754;6.106;2023-03-17T15:04:24;3.67;;;1.25;;
12725;SDS011;6427;49.754;6.106;2023-03-17T15:06:54;5.80;;;0.90;;
12725;SDS011;6427;49.754;6.106;2023-03-17T15:09:29;1.80;;;1.00;;
12725;SDS011;6427;49.754;6.106;2023-03-17T15:11:58;7.70;;;1.27;;
12725;SDS011;6427;49.754;6.106;2023-03-17T15:14:33;3.87;;;1.03;;
12725;SDS011;6427;49.754;6.106;2023-03-17T15:17:16;2.83;;;0.87;;
12725;SDS011;6427;49.754;6.106;2023-03-17T15:19:49;5.10;;;0.70;;
12725;SDS011;6427;49.754;6.106;2023-03-17T15:22:23;3.13;;;0.80;;
12725;SDS011;6427;49.754;6.106;2023-03-17T15:24:57;2.30;;;0.90;;
12725;SDS011;6427;49.754;6.106;2023-03-17T15:27:18;4.30;;;1.10;;
12725;SDS011;6427;49.754;6.106;2023-03-17T15:29:46;3.53;;;1.10;;
12725;SDS011;6427;49.754;6.106;2023-03-17T15:32:15;2.07;;;0.80;;
12725;SDS011;6427;49.754;6.106;2023-03-17T15:34:41;4.80;;;0.97;;
12725;SDS011;6427;49.754;6.106;2023-03-17T15:37:17;2.07;;;1.00;;
12725;SDS011;6427;49.754;6.106;2023-03-17T15:39:43;3.53;;;1.20;;
12725;SDS011;6427;49.754;6.106;2023-03-17T15:42:10;3.23;;;0.80;;
12725;SDS011;6427;49.754;6.106;2023-03-17T15:44:38;4.05;;;1.27;;
12725;SDS011;6427;49.754;6.106;2023-03-17T15:47:05;2.23;;;1.00;;
12725;SDS011;6427;49.754;6.106;2023-03-17T15:49:33;3.40;;;0.98;;
12725;SDS011;6427;49.754;6.106;2023-03-17T15:52:01;3.17;;;0.90;;
12725;SDS011;6427;49.754;6.106;2023-03-17T15:54:29;3.30;;;0.90;;
12725;SDS011;6427;49.754;6.106;2023-03-17T15:56:57;2.23;;;0.87;;
12725;SDS011;6427;49.754;6.106;2023-03-17T15:59:25;3.37;;;1.03;;
12725;SDS011;6427;49.754;6.106;2023-03-17T16:01:53;5.70;;;1.10;;
12725;SDS011;6427;49.754;6.106;2023-03-17T16:04:22;4.80;;;1.00;;
12725;SDS011;6427;49.754;6.106;2023-03-17T16:06:49;3.30;;;1.10;;
12725;SDS011;6427;49.754;6.106;2023-03-17T16:09:17;8.33;;;1.10;;
12725;SDS011;6427;49.754;6.106;2023-03-17T16:11:45;2.87;;;1.30;;
12725;SDS011;6427;49.754;6.106;2023-03-17T16:14:13;7.47;;;1.10;;
12725;SDS011;6427;49.754;6.106;2023-03-17T16:16:41;4.73;;;1.00;;
12725;SDS011;6427;49.754;6.106;2023-03-17T16:19:13;2.67;;;0.97;;
12725;SDS011;6427;49.754;6.106;2023-03-17T16:21:45;2.93;;;0.70;;
12725;SDS011;6427;49.754;6.106;2023-03-17T16:24:17;7.10;;;1.00;;
12725;SDS011;6427;49.754;6.106;2023-03-17T16:26:44;4.80;;;1.10;;
12725;SDS011;6427;49.754;6.106;2023-03-17T16:29:12;3.50;;;1.10;;
12725;SDS011;6427;49.754;6.106;2023-03-17T16:31:40;3.57;;;1.10;;
12725;SDS011;6427;49.754;6.106;2023-03-17T16:34:29;4.07;;;1.10;;
12725;SDS011;6427;49.754;6.106;2023-03-17T16:36:47;5.00;;;1.07;;